createdAt,value
2022-10-02T00:01:33.740Z,100884.31
2022-10-02T00:04:02.695Z,100885.63
2022-10-02T00:06:39.125Z,100862.16
2022-10-02T00:09:11.457Z,100855.22
2022-10-02T00:11:44.703Z,100852.94
2022-10-02T00:14:17.342Z,100859.50
2022-10-02T00:16:47.761Z,100875.25
2022-10-02T00:19:18.590Z,100874.81
2022-10-02T00:21:56.477Z,100885.94
2022-10-02T00:24:28.795Z,100891.06
2022-10-02T00:27:04.824Z,100909.91
2022-10-02T00:29:40.943Z,100913.66
2022-10-02T00:32:17.925Z,100936.63
2022-10-02T00:35:20.686Z,100936.00
2022-10-02T00:37:58.074Z,100920.16
2022-10-02T00:40:40.484Z,100941.06
2022-10-02T00:43:19.669Z,100958.09
2022-10-02T00:46:00.533Z,100948.09
2022-10-02T00:48:50.824Z,100932.47
2022-10-02T00:51:36.576Z,100942.69
2022-10-02T00:54:20.283Z,100936.63
2022-10-02T00:56:58.589Z,100944.41
2022-10-02T00:59:44.739Z,100959.78
2022-10-02T01:02:36.215Z,100971.53
2022-10-02T01:05:07.609Z,100954.72
2022-10-02T01:07:38.843Z,100946.91
2022-10-02T01:10:08.412Z,100939.41
2022-10-02T01:12:37.478Z,100938.84
2022-10-02T01:15:12.792Z,100938.19
2022-10-02T01:17:43.366Z,100942.94
2022-10-02T01:20:17.703Z,100956.09
2022-10-02T01:22:50.261Z,100956.88
2022-10-02T01:25:19.397Z,100980.69
2022-10-02T01:27:47.871Z,100990.97
2022-10-02T01:30:19.075Z,100977.44
2022-10-02T01:32:51.226Z,100960.75
2022-10-02T01:35:20.849Z,100959.38
2022-10-02T01:37:51.296Z,100970.53
2022-10-02T01:40:29.695Z,100978.06
2022-10-02T01:43:01.860Z,100989.66
2022-10-02T01:45:49.848Z,100999.09
2022-10-02T01:48:23.781Z,100986.34
2022-10-02T01:51:08.633Z,100995.50
2022-10-02T01:53:44.613Z,100978.94
2022-10-02T01:56:20.142Z,100978.81
2022-10-02T01:58:56.777Z,100989.88
2022-10-02T02:01:40.620Z,100987.38
2022-10-02T02:04:21.487Z,100984.97
2022-10-02T02:06:57.660Z,100988.28
2022-10-02T02:09:32.330Z,100978.44
2022-10-02T02:12:09.301Z,100973.06
2022-10-02T02:14:40.656Z,100993.47
2022-10-02T02:17:13.521Z,101006.50
2022-10-02T02:19:47.913Z,101008.56
2022-10-02T02:22:21.909Z,101020.41
2022-10-02T02:24:56.329Z,101035.34
2022-10-02T02:27:29.611Z,101041.41
2022-10-02T02:30:03.711Z,101057.25
2022-10-02T02:32:36.990Z,101059.59
2022-10-02T02:35:09.196Z,101059.66
2022-10-02T02:37:40.915Z,101065.13
2022-10-02T02:40:13.370Z,101063.78
2022-10-02T02:42:47.187Z,101069.06
2022-10-02T02:45:19.928Z,101060.38
2022-10-02T02:47:51.490Z,101046.94
2022-10-02T02:50:24.122Z,101046.94
2022-10-02T02:52:58.475Z,101036.25
2022-10-02T02:55:32.101Z,101028.34
2022-10-02T02:58:06.411Z,101031.63
2022-10-02T03:00:34.452Z,101033.34
2022-10-02T03:03:02.248Z,101032.13
2022-10-02T03:05:30.891Z,101036.16
2022-10-02T03:08:02.030Z,101042.75
2022-10-02T03:10:41.353Z,101032.66
2022-10-02T03:13:24.891Z,101039.31
2022-10-02T03:16:06.092Z,101036.97
2022-10-02T03:18:48.221Z,101021.78
2022-10-02T03:21:19.948Z,101029.22
2022-10-02T03:24:02.301Z,101027.88
2022-10-02T03:26:36.623Z,101024.38
2022-10-02T03:29:11.755Z,100992.78
2022-10-02T03:31:41.117Z,101005.25
2022-10-02T03:34:09.562Z,100986.13
2022-10-02T03:36:38.337Z,100975.72
2022-10-02T03:39:25.765Z,100976.22
2022-10-02T03:41:54.874Z,100970.25
2022-10-02T03:44:24.010Z,100973.28
2022-10-02T03:46:51.850Z,100973.03
2022-10-02T03:49:19.581Z,100967.88
2022-10-02T03:51:47.317Z,100980.91
2022-10-02T03:54:19.103Z,100980.19
2022-10-02T03:56:54.373Z,100986.19
2022-10-02T03:59:34.501Z,100969.41
2022-10-02T04:02:07.217Z,100974.72
2022-10-02T04:04:45.452Z,100971.06
2022-10-02T04:07:20.358Z,100967.22
2022-10-02T04:09:55.624Z,100975.56
2022-10-02T04:12:29.213Z,100974.78
2022-10-02T04:15:05.083Z,100973.28
2022-10-02T04:17:43.932Z,100954.53
2022-10-02T04:20:18.834Z,100936.63
2022-10-02T04:22:52.691Z,100951.81
2022-10-02T04:25:23.967Z,100958.41
2022-10-02T04:27:57.755Z,100945.56
2022-10-02T04:30:27.243Z,100954.31
2022-10-02T04:32:55.165Z,100960.53
2022-10-02T04:35:30.328Z,100961.94
2022-10-02T04:38:30.190Z,100957.47
2022-10-02T04:41:12.394Z,100978.09
2022-10-02T04:43:55.523Z,100965.66
2022-10-02T04:46:50.742Z,100989.81
2022-10-02T04:49:39.685Z,100992.69
2022-10-02T04:52:25.020Z,100991.47
2022-10-02T04:55:03.576Z,100991.66
2022-10-02T04:57:54.247Z,101002.13
2022-10-02T05:00:24.950Z,101011.56
2022-10-02T05:03:10.442Z,101009.25
2022-10-02T05:05:53.022Z,101031.03
2022-10-02T05:08:39.319Z,101032.88
2022-10-02T05:11:21.952Z,101045.69
2022-10-02T05:14:06.364Z,101038.41
2022-10-02T05:16:49.893Z,101040.88
2022-10-02T05:19:41.322Z,101059.16
2022-10-02T05:22:25.504Z,101070.72
2022-10-02T05:25:06.650Z,101050.56
2022-10-02T05:27:56.792Z,101044.63
2022-10-02T05:30:25.525Z,101052.25
2022-10-02T05:33:17.349Z,101062.41
2022-10-02T05:36:10.562Z,101053.38
2022-10-02T05:38:57.512Z,101048.78
2022-10-02T05:41:34.924Z,101032.59
2022-10-02T05:44:08.602Z,101023.28
2022-10-02T05:46:41.639Z,101043.69
2022-10-02T05:49:16.515Z,101041.97
2022-10-02T05:51:53.666Z,101063.75
2022-10-02T05:54:35.627Z,101067.72
2022-10-02T05:57:12.595Z,101069.84
2022-10-02T05:59:48.851Z,101064.38
2022-10-02T06:02:25.394Z,101051.63
2022-10-02T06:05:02.841Z,101053.31
2022-10-02T06:07:33.122Z,101043.66
2022-10-02T06:10:07.155Z,101031.81
2022-10-02T06:12:39.535Z,101026.75
2022-10-02T06:15:16.681Z,101005.22
2022-10-02T06:17:50.063Z,100998.00
2022-10-02T06:20:27.132Z,100997.63
2022-10-02T06:23:02.669Z,100981.28
2022-10-02T06:25:39.276Z,100988.28
2022-10-02T06:28:14.663Z,100974.72
2022-10-02T06:30:47.250Z,100981.41
2022-10-02T06:33:20.002Z,100971.34
2022-10-02T06:36:09.090Z,100984.44
2022-10-02T06:38:52.104Z,100963.63
2022-10-02T06:41:30.857Z,100959.69
2022-10-02T06:44:21.878Z,100962.31
2022-10-02T06:47:04.300Z,100952.06
2022-10-02T06:49:42.549Z,100937.84
2022-10-02T06:52:27.093Z,100928.88
2022-10-02T06:55:10.575Z,100909.91
2022-10-02T06:58:01.207Z,100892.06
2022-10-02T07:00:29.786Z,100843.56
2022-10-02T07:03:19.986Z,100846.88
2022-10-02T07:06:11.503Z,100813.75
2022-10-02T07:08:55.464Z,100810.84
2022-10-02T07:11:32.690Z,100795.53
2022-10-02T07:14:23.081Z,100793.44
2022-10-02T07:17:06.877Z,100778.28
2022-10-02T07:19:47.800Z,100771.13
2022-10-02T07:22:44.695Z,100745.88
2022-10-02T07:25:28.781Z,100706.91
2022-10-02T07:28:08.875Z,100676.53
2022-10-02T07:30:44.988Z,100649.97
2022-10-02T07:33:29.235Z,100635.31
2022-10-02T07:36:04.553Z,100614.13
2022-10-02T07:38:54.516Z,100592.44
2022-10-02T07:41:48.425Z,100581.16
2022-10-02T07:44:32.146Z,100556.53
2022-10-02T07:47:09.671Z,100549.94
2022-10-02T07:49:51.864Z,100524.41
2022-10-02T07:52:28.465Z,100517.47
2022-10-02T07:55:07.331Z,100536.75
2022-10-02T07:57:41.768Z,100539.19
2022-10-02T08:00:15.985Z,100532.34
2022-10-02T08:02:52.683Z,100480.97
2022-10-02T08:05:23.539Z,100451.38
2022-10-02T08:07:55.276Z,100445.25
2022-10-02T08:10:26.816Z,100458.53
2022-10-02T08:13:05.951Z,100424.94
2022-10-02T08:15:38.232Z,100397.44
2022-10-02T08:18:33.049Z,100374.41
2022-10-02T08:21:02.877Z,100417.66
2022-10-02T08:23:37.614Z,100385.72
2022-10-02T08:26:10.892Z,100446.59
2022-10-02T08:28:44.833Z,100428.91
2022-10-02T08:31:15.991Z,100396.59
2022-10-02T08:33:44.155Z,100370.38
2022-10-02T08:36:48.145Z,100399.09
2022-10-02T08:39:35.397Z,100447.34
2022-10-02T08:42:29.007Z,100421.38
2022-10-02T08:45:16.421Z,100395.84
2022-10-02T08:48:20.757Z,100339.41
2022-10-02T08:51:28.095Z,100352.06
2022-10-02T08:54:26.765Z,100371.16
2022-10-02T08:57:19.451Z,100646.28
2022-10-02T09:00:05.220Z,100719.38
2022-10-02T09:03:19.079Z,100717.03
2022-10-02T09:06:13.073Z,100736.16
2022-10-02T09:09:18.837Z,100706.81
2022-10-02T09:12:33.896Z,100690.34
2022-10-02T09:15:13.537Z,100679.94
2022-10-02T09:17:50.222Z,100625.53
2022-10-02T09:21:01.334Z,100662.88
2022-10-02T09:24:09.889Z,100709.75
2022-10-02T09:27:00.399Z,100740.63
2022-10-02T09:29:56.060Z,100693.88
2022-10-02T09:32:57.633Z,100665.88
2022-10-02T09:36:06.494Z,100741.69
2022-10-02T09:38:57.963Z,100689.34
2022-10-02T09:42:03.915Z,100776.66
2022-10-02T09:45:17.381Z,100804.41
2022-10-02T09:48:43.088Z,100829.63
2022-10-02T09:51:41.843Z,100847.00
2022-10-02T09:54:48.056Z,100845.16
2022-10-02T09:57:54.315Z,100801.44
2022-10-02T10:00:27.696Z,100805.91
2022-10-02T10:03:36.450Z,100811.53
2022-10-02T10:06:50.346Z,100859.50
2022-10-02T10:09:56.560Z,100887.97
2022-10-02T10:12:58.530Z,100889.00
2022-10-02T10:15:50.296Z,100842.78
2022-10-02T10:18:36.359Z,100851.50
2022-10-02T10:21:26.809Z,100891.63
2022-10-02T10:24:26.787Z,100921.56
2022-10-02T10:27:17.946Z,100913.59
2022-10-02T10:30:10.219Z,100908.69
2022-10-02T10:33:04.705Z,100872.94
2022-10-02T10:35:52.470Z,100871.34
2022-10-02T10:38:49.565Z,100826.19
2022-10-02T10:42:01.542Z,100855.81
2022-10-02T10:44:59.597Z,100863.09
2022-10-02T10:47:52.531Z,100920.34
2022-10-02T10:50:38.584Z,100900.13
2022-10-02T10:53:31.489Z,100882.97
2022-10-02T10:56:21.820Z,100858.34
2022-10-02T10:59:16.704Z,100921.16
2022-10-02T11:02:00.604Z,100944.63
2022-10-02T11:04:54.553Z,100886.28
2022-10-02T11:07:42.871Z,100903.69
2022-10-02T11:10:23.898Z,100915.25
2022-10-02T11:13:16.083Z,100866.22
2022-10-02T11:16:07.469Z,100879.53
2022-10-02T11:18:50.487Z,100947.66
2022-10-02T11:21:55.164Z,100956.34
2022-10-02T11:24:38.417Z,100970.03
2022-10-02T11:27:24.448Z,100934.06
2022-10-02T11:30:14.233Z,100873.88
2022-10-02T11:32:58.061Z,100882.88
2022-10-02T11:35:33.348Z,100966.13
2022-10-02T11:38:19.516Z,100958.66
2022-10-02T11:41:15.793Z,100968.00
2022-10-02T11:44:06.211Z,100967.75
2022-10-02T11:47:07.232Z,100939.28
2022-10-02T11:50:14.744Z,100893.09
2022-10-02T11:53:12.693Z,100888.94
2022-10-02T11:55:57.033Z,100895.53
2022-10-02T11:58:45.435Z,100899.78
2022-10-02T12:01:21.177Z,100949.28
2022-10-02T12:04:05.119Z,100931.97
2022-10-02T12:06:51.539Z,100932.16
2022-10-02T12:09:31.089Z,100949.00
2022-10-02T12:12:14.787Z,100953.84
2022-10-02T12:14:49.441Z,100983.38
2022-10-02T12:17:53.174Z,100970.28
2022-10-02T12:20:46.811Z,100993.19
2022-10-02T12:23:47.313Z,100956.53
2022-10-02T12:26:46.851Z,100951.97
2022-10-02T12:29:25.229Z,100977.59
2022-10-02T12:32:00.298Z,100974.66
2022-10-02T12:34:39.613Z,101022.94
2022-10-02T12:37:16.486Z,100980.81
2022-10-02T12:39:55.712Z,101013.50
2022-10-02T12:42:46.788Z,101021.84
2022-10-02T12:45:48.684Z,101026.97
2022-10-02T12:48:29.330Z,101050.16
2022-10-02T12:51:20.891Z,101050.78
2022-10-02T12:54:29.921Z,101065.41
2022-10-02T12:57:36.646Z,101060.72
2022-10-02T13:00:15.377Z,101049.91
2022-10-02T13:03:02.064Z,101062.38
2022-10-02T13:05:54.260Z,101070.66
2022-10-02T13:08:32.568Z,101063.59
2022-10-02T13:11:09.026Z,101071.38
2022-10-02T13:14:00.525Z,101079.38
2022-10-02T13:16:52.935Z,101075.66
2022-10-02T13:19:32.683Z,101065.06
2022-10-02T13:22:05.462Z,101073.59
2022-10-02T13:24:50.281Z,101079.59
2022-10-02T13:27:31.403Z,101090.38
2022-10-02T13:30:11.234Z,101081.25
2022-10-02T13:32:59.237Z,101070.19
2022-10-02T13:35:45.954Z,101070.78
2022-10-02T13:38:31.141Z,101069.19
2022-10-02T13:41:09.673Z,101068.63
2022-10-02T13:43:58.609Z,101061.34
2022-10-02T13:46:53.541Z,101065.38
2022-10-02T13:49:40.048Z,101060.53
2022-10-02T13:52:20.918Z,101067.34
2022-10-02T13:55:05.590Z,101070.22
2022-10-02T13:57:46.087Z,101066.31
2022-10-02T14:00:23.626Z,101070.47
2022-10-02T14:03:05.917Z,101072.53
2022-10-02T14:05:43.278Z,101076.09
2022-10-02T14:08:35.410Z,101079.19
2022-10-02T14:11:17.075Z,101086.63
2022-10-02T14:14:03.346Z,101084.56
2022-10-02T14:16:52.519Z,101083.53
2022-10-02T14:19:38.388Z,101086.44
2022-10-02T14:22:33.799Z,101085.13
2022-10-02T14:25:28.397Z,101084.28
2022-10-02T14:28:19.237Z,101089.72
2022-10-02T14:30:56.339Z,101092.31
2022-10-02T14:33:35.945Z,101092.03
2022-10-02T14:36:09.391Z,101085.41
2022-10-02T14:39:03.424Z,101106.97
2022-10-02T14:41:55.265Z,101113.38
2022-10-02T14:44:39.793Z,101112.19
2022-10-02T14:47:21.401Z,101115.91
2022-10-02T14:50:23.728Z,101111.56
2022-10-02T14:53:29.610Z,101107.22
2022-10-02T14:56:29.823Z,101116.22
2022-10-02T14:59:13.508Z,101117.91
2022-10-02T15:01:45.928Z,101113.31
2022-10-02T15:04:42.698Z,101111.75
2022-10-02T15:07:13.171Z,101129.97
2022-10-02T15:09:59.206Z,101134.25
2022-10-02T15:12:34.850Z,101119.25
2022-10-02T15:15:14.034Z,101110.28
2022-10-02T15:17:55.236Z,101120.97
2022-10-02T15:20:41.080Z,101136.25
2022-10-02T15:23:12.440Z,101138.53
2022-10-02T15:25:57.234Z,101117.25
2022-10-02T15:28:37.215Z,101104.53
2022-10-02T15:31:20.468Z,101109.72
2022-10-02T15:33:58.595Z,101110.69
2022-10-02T15:36:43.899Z,101104.00
2022-10-02T15:39:31.611Z,101107.00
2022-10-02T15:42:05.931Z,101084.97
2022-10-02T15:45:09.681Z,101078.34
2022-10-02T15:48:08.130Z,101084.78
2022-10-02T15:50:49.674Z,101054.06
2022-10-02T15:53:41.128Z,101062.72
2022-10-02T15:56:26.279Z,101042.09
2022-10-02T15:59:20.272Z,101022.63
2022-10-02T16:02:00.721Z,101009.25
2022-10-02T16:04:35.572Z,101024.94
2022-10-02T16:07:46.339Z,101000.00
2022-10-02T16:10:21.745Z,100999.38
2022-10-02T16:13:05.994Z,100993.13
2022-10-02T16:15:48.235Z,100950.09
2022-10-02T16:18:29.993Z,100930.91
2022-10-02T16:21:15.832Z,100918.63
2022-10-02T16:24:12.018Z,100915.50
2022-10-02T16:27:12.120Z,100837.69
2022-10-02T16:29:47.670Z,100830.97
2022-10-02T16:32:24.384Z,100806.03
2022-10-02T16:35:16.630Z,100803.22
2022-10-02T16:37:48.400Z,100783.69
2022-10-02T16:40:27.227Z,100775.69
2022-10-02T16:43:26.336Z,100785.31
2022-10-02T16:46:04.470Z,100732.31
2022-10-02T16:48:42.579Z,100748.66
2022-10-02T16:51:30.098Z,100717.66
2022-10-02T16:54:13.713Z,100703.66
2022-10-02T16:56:47.711Z,100675.09
2022-10-02T16:59:21.376Z,100700.25
2022-10-02T17:02:16.505Z,100704.91
2022-10-02T17:04:47.580Z,100710.47
2022-10-02T17:07:33.553Z,100697.00
2022-10-02T17:10:18.800Z,100727.91
2022-10-02T17:12:52.689Z,100709.75
2022-10-02T17:15:26.475Z,100742.28
2022-10-02T17:18:09.977Z,100740.53
2022-10-02T17:20:44.511Z,100764.19
2022-10-02T17:23:17.677Z,100738.28
2022-10-02T17:25:54.465Z,100737.97
2022-10-02T17:28:26.736Z,100735.66
2022-10-02T17:31:17.600Z,100741.00
2022-10-02T17:33:51.665Z,100758.78
2022-10-02T17:36:31.687Z,100751.03
2022-10-02T17:39:22.208Z,100779.25
2022-10-02T17:41:56.909Z,100782.84
2022-10-02T17:44:45.316Z,100791.78
2022-10-02T17:47:38.779Z,100795.09
2022-10-02T17:50:33.580Z,100816.63
2022-10-02T17:53:34.487Z,100819.31
2022-10-02T17:56:37.308Z,100798.34
2022-10-02T17:59:28.025Z,100769.91
2022-10-02T18:02:06.249Z,100737.97
2022-10-02T18:04:45.825Z,100734.78
2022-10-02T18:07:32.712Z,100734.59
2022-10-02T18:10:17.331Z,100738.22
2022-10-02T18:13:19.441Z,100747.19
2022-10-02T18:16:04.653Z,100749.47
2022-10-02T18:18:40.513Z,100770.06
2022-10-02T18:21:32.289Z,100766.44
2022-10-02T18:24:20.667Z,100762.16
2022-10-02T18:27:18.348Z,100771.59
2022-10-02T18:29:58.614Z,100776.09
2022-10-02T18:32:58.501Z,100782.84
2022-10-02T18:35:43.153Z,100782.09
2022-10-02T18:38:20.917Z,100773.06
2022-10-02T18:40:56.385Z,100778.94
2022-10-02T18:43:52.612Z,100779.03
2022-10-02T18:46:40.535Z,100781.88
2022-10-02T18:49:27.303Z,100785.81
2022-10-02T18:52:09.304Z,100792.22
2022-10-02T18:54:51.018Z,100795.25
2022-10-02T18:57:31.722Z,100800.28
2022-10-02T19:00:06.607Z,100813.25
2022-10-02T19:02:53.767Z,100830.09
2022-10-02T19:05:26.585Z,100829.22
2022-10-02T19:08:06.768Z,100825.53
2022-10-02T19:10:45.003Z,100810.63
2022-10-02T19:13:18.043Z,100812.59
2022-10-02T19:15:48.793Z,100802.53
2022-10-02T19:18:18.898Z,100818.09
2022-10-02T19:20:53.452Z,100810.63
2022-10-02T19:23:31.922Z,100809.72
2022-10-02T19:26:04.928Z,100821.69
2022-10-02T19:28:36.634Z,100825.78
2022-10-02T19:31:10.465Z,100828.72
2022-10-02T19:33:51.209Z,100826.59
2022-10-02T19:36:23.482Z,100830.25
2022-10-02T19:38:55.047Z,100844.72
2022-10-02T19:41:23.793Z,100842.72
2022-10-02T19:43:56.395Z,100857.88
2022-10-02T19:46:39.220Z,100869.56
2022-10-02T19:49:08.780Z,100861.59
2022-10-02T19:51:45.844Z,100867.25
2022-10-02T19:54:19.861Z,100881.59
2022-10-02T19:56:47.895Z,100886.25
2022-10-02T19:59:19.274Z,100895.88
2022-10-02T20:01:51.722Z,100891.94
2022-10-02T20:04:21.824Z,100902.88
2022-10-02T20:06:55.055Z,100875.91
2022-10-02T20:09:29.377Z,100906.41
2022-10-02T20:12:01.887Z,100896.91
2022-10-02T20:14:35.109Z,100902.41
2022-10-02T20:17:11.196Z,100900.09
2022-10-02T20:19:43.841Z,100912.41
2022-10-02T20:22:23.961Z,100903.09
2022-10-02T20:25:07.427Z,100908.94
2022-10-02T20:27:42.680Z,100914.69
2022-10-02T20:30:14.755Z,100918.75
2022-10-02T20:32:48.237Z,100889.59
2022-10-02T20:35:21.510Z,100902.53
2022-10-02T20:37:54.062Z,100903.25
2022-10-02T20:40:26.310Z,100900.19
2022-10-02T20:43:01.477Z,100893.22
2022-10-02T20:45:37.823Z,100894.19
2022-10-02T20:49:03.010Z,100892.56
2022-10-02T20:51:45.032Z,100901.25
2022-10-02T20:54:40.537Z,100911.91
2022-10-02T21:00:20.734Z,100892.56
2022-10-02T21:03:26.408Z,100909.91
2022-10-02T21:06:12.767Z,100908.25
2022-10-02T21:09:05.195Z,100911.31
2022-10-02T21:12:04.901Z,100909.38
2022-10-02T21:15:13.813Z,100917.72
2022-10-02T21:18:20.587Z,100915.31
2022-10-02T21:21:05.459Z,100914.06
2022-10-02T21:24:05.385Z,100915.75
2022-10-02T21:27:08.999Z,100914.34
2022-10-02T21:30:00.026Z,100927.75
2022-10-02T21:33:00.938Z,100915.03
2022-10-02T21:35:39.830Z,100926.63
2022-10-02T21:38:50.903Z,100927.44
2022-10-02T21:41:53.796Z,100941.75
2022-10-02T21:45:04.318Z,100939.75
2022-10-02T21:47:57.760Z,100957.63
2022-10-02T21:51:18.378Z,100931.16
2022-10-02T21:54:18.931Z,100942.31
2022-10-02T21:57:16.597Z,100922.50
2022-10-02T22:00:13.990Z,100931.81
2022-10-02T22:03:29.191Z,100924.50
2022-10-02T22:06:06.969Z,100922.72
2022-10-02T22:08:46.354Z,100924.16
2022-10-02T22:11:24.006Z,100940.81
2022-10-02T22:13:55.947Z,100934.22
2022-10-02T22:16:36.387Z,100932.41
2022-10-02T22:19:14.777Z,100941.03
2022-10-02T22:21:57.837Z,100942.22
2022-10-02T22:24:52.886Z,100952.50
2022-10-02T22:27:45.454Z,100951.72
2022-10-02T22:30:24.008Z,100958.13
2022-10-02T22:33:27.116Z,100946.41
2022-10-02T22:36:22.058Z,100972.47
2022-10-02T22:38:53.168Z,100972.13
2022-10-02T22:41:27.212Z,100959.78
2022-10-02T22:43:58.458Z,100978.06
2022-10-02T22:46:40.898Z,100960.94
2022-10-02T22:49:22.330Z,100938.72
2022-10-02T22:51:59.977Z,100970.34
2022-10-02T22:54:39.328Z,100967.16
2022-10-02T22:57:19.248Z,100964.00
2022-10-02T22:59:55.331Z,100965.97
2022-10-02T23:02:28.979Z,100966.47
2022-10-02T23:05:06.470Z,100960.91
2022-10-02T23:07:44.517Z,100976.41
2022-10-02T23:10:23.690Z,100975.63
2022-10-02T23:12:58.725Z,100979.97
2022-10-02T23:15:35.815Z,100972.25
2022-10-02T23:18:06.415Z,100963.34
2022-10-02T23:20:39.604Z,100984.69
2022-10-02T23:23:16.402Z,100990.03
2022-10-02T23:25:49.495Z,100983.50
2022-10-02T23:28:23.696Z,100987.41
2022-10-02T23:31:02.751Z,101003.72
2022-10-02T23:33:42.262Z,101002.22
2022-10-02T23:36:24.153Z,100991.22
2022-10-02T23:38:59.382Z,100982.84
2022-10-02T23:41:37.474Z,100990.50
2022-10-02T23:44:17.362Z,101013.50
2022-10-02T23:47:00.308Z,100990.78
2022-10-02T23:49:34.956Z,100995.13
2022-10-02T23:52:28.125Z,101002.81
2022-10-02T23:55:13.995Z,101013.47
2022-10-02T23:57:57.658Z,101011.47
